createdAt,value
2018-12-14T00:01:48.890Z,86.86
2018-12-14T00:04:27.487Z,86.81
2018-12-14T00:07:01.809Z,87.00
2018-12-14T00:09:34.992Z,86.98
2018-12-14T00:12:07.611Z,86.98
2018-12-14T00:14:40.132Z,87.75
2018-12-14T00:17:14.027Z,87.76
2018-12-14T00:19:47.405Z,87.78
2018-12-14T00:22:21.170Z,88.48
2018-12-14T00:24:52.651Z,88.29
2018-12-14T00:27:26.176Z,88.96
2018-12-14T00:29:59.392Z,89.23
2018-12-14T00:32:32.334Z,88.80
2018-12-14T00:35:05.859Z,89.08
2018-12-14T00:37:38.913Z,89.06
2018-12-14T00:40:16.993Z,89.53
2018-12-14T00:42:49.428Z,89.90
2018-12-14T00:45:21.769Z,89.37
2018-12-14T00:47:54.700Z,89.34
2018-12-14T00:50:27.817Z,89.74
2018-12-14T00:53:00.980Z,89.78
2018-12-14T00:55:37.946Z,89.62
2018-12-14T00:58:10.225Z,89.63
2018-12-14T01:00:47.421Z,89.95
2018-12-14T01:03:19.735Z,90.36
2018-12-14T01:05:52.764Z,89.84
2018-12-14T01:08:29.762Z,90.61
2018-12-14T01:11:02.740Z,90.05
2018-12-14T01:13:35.265Z,89.84
2018-12-14T01:16:07.579Z,89.75
2018-12-14T01:18:44.268Z,89.86
2018-12-14T01:21:20.491Z,90.61
2018-12-14T01:23:56.532Z,90.67
2018-12-14T01:26:29.967Z,90.67
2018-12-14T01:29:06.887Z,90.60
2018-12-14T01:31:43.145Z,90.19
2018-12-14T01:34:15.420Z,89.83
2018-12-14T01:36:47.760Z,89.67
2018-12-14T01:39:24.226Z,89.79
2018-12-14T01:42:04.855Z,89.79
2018-12-14T01:44:35.483Z,89.97
2018-12-14T01:47:08.587Z,90.27
2018-12-14T01:49:41.679Z,90.73
2018-12-14T01:52:14.743Z,90.32
2018-12-14T01:54:47.161Z,90.04
2018-12-14T01:57:24.467Z,89.84
2018-12-14T01:59:57.256Z,90.21
2018-12-14T02:02:29.785Z,90.24
2018-12-14T02:05:03.029Z,90.29
2018-12-14T02:07:35.622Z,90.25
2018-12-14T02:10:08.230Z,90.30
2018-12-14T02:12:39.181Z,90.08
2018-12-14T02:15:11.983Z,89.75
2018-12-14T02:17:48.214Z,89.66
2018-12-14T02:20:19.260Z,90.04
2018-12-14T02:22:52.250Z,90.54
2018-12-14T02:25:25.313Z,90.39
2018-12-14T02:27:58.784Z,90.10
2018-12-14T02:30:45.281Z,89.87
2018-12-14T02:33:22.603Z,89.85
2018-12-14T02:35:58.844Z,89.12
2018-12-14T02:38:35.469Z,89.80
2018-12-14T02:41:08.559Z,89.57
2018-12-14T02:43:41.581Z,89.33
2018-12-14T02:46:16.617Z,88.84
2018-12-14T02:48:51.854Z,88.36
2018-12-14T02:51:26.666Z,88.19
2018-12-14T02:53:59.357Z,88.95
2018-12-14T02:56:32.861Z,89.33
2018-12-14T02:59:05.548Z,89.06
2018-12-14T03:01:42.557Z,88.93
2018-12-14T03:04:15.699Z,88.05
2018-12-14T03:06:53.685Z,88.88
2018-12-14T03:09:31.070Z,89.12
2018-12-14T03:12:04.385Z,89.21
2018-12-14T03:14:42.575Z,89.16
2018-12-14T03:17:17.418Z,88.26
2018-12-14T03:19:54.193Z,86.75
2018-12-14T03:22:38.871Z,86.10
2018-12-14T03:25:20.745Z,86.38
2018-12-14T03:28:01.705Z,86.83
2018-12-14T03:30:37.385Z,87.65
2018-12-14T03:33:13.110Z,87.38
2018-12-14T03:35:52.060Z,87.34
2018-12-14T03:38:25.836Z,86.56
2018-12-14T03:41:02.835Z,85.84
2018-12-14T03:43:40.458Z,85.27
2018-12-14T03:46:15.152Z,84.89
2018-12-14T03:48:51.191Z,84.90
2018-12-14T03:51:28.438Z,85.45
2018-12-14T03:54:06.317Z,84.74
2018-12-14T03:56:39.470Z,85.12
2018-12-14T03:59:12.340Z,84.92
2018-12-14T04:01:45.043Z,85.71
2018-12-14T04:04:17.180Z,85.25
2018-12-14T04:06:50.186Z,85.06
2018-12-14T04:09:23.405Z,84.90
2018-12-14T04:11:56.500Z,86.05
2018-12-14T04:14:28.950Z,86.21
2018-12-14T04:17:02.015Z,87.17
2018-12-14T04:19:32.320Z,86.65
2018-12-14T04:22:05.431Z,86.26
2018-12-14T04:24:38.341Z,86.04
2018-12-14T04:27:11.234Z,86.89
2018-12-14T04:29:43.686Z,85.82
2018-12-14T04:32:16.725Z,85.91
2018-12-14T04:34:49.194Z,86.21
2018-12-14T04:37:26.573Z,87.16
2018-12-14T04:40:00.896Z,85.72
2018-12-14T04:42:34.126Z,85.05
2018-12-14T04:50:15.502Z,85.04
2018-12-14T04:52:48.867Z,85.08
2018-12-14T04:55:22.215Z,85.48
2018-12-14T04:57:55.584Z,85.19
2018-12-14T05:00:27.958Z,85.88
2018-12-14T05:03:02.632Z,84.75
2018-12-14T05:05:37.866Z,83.98
2018-12-14T05:08:10.903Z,84.45
2018-12-14T05:10:47.883Z,83.82
2018-12-14T05:13:23.201Z,84.32
2018-12-14T05:16:01.146Z,85.35
2018-12-14T05:18:39.854Z,85.16
2018-12-14T05:21:19.788Z,85.04
2018-12-14T05:23:57.535Z,84.38
2018-12-14T05:26:30.776Z,85.34
2018-12-14T05:29:17.050Z,84.90
2018-12-14T05:31:54.263Z,84.72
2018-12-14T05:34:28.118Z,84.77
2018-12-14T05:37:01.448Z,84.87
2018-12-14T05:39:41.567Z,85.25
2018-12-14T05:42:23.230Z,85.61
2018-12-14T05:44:57.606Z,86.21
2018-12-14T05:47:36.482Z,87.07
2018-12-14T06:12:51.860Z,91.05
2018-12-14T06:15:27.772Z,91.04
2018-12-14T06:18:05.630Z,91.00
2018-12-14T06:20:39.266Z,91.50
2018-12-14T06:23:16.231Z,91.59
2018-12-14T06:25:49.188Z,91.36
2018-12-14T06:28:22.642Z,91.63
2018-12-14T06:31:01.198Z,91.87
2018-12-14T06:33:35.758Z,92.20
2018-12-14T06:36:09.857Z,91.86
2018-12-14T06:38:43.961Z,92.14
2018-12-14T06:41:16.936Z,92.12
2018-12-14T06:43:47.880Z,91.79
2018-12-14T06:46:21.091Z,91.98
2018-12-14T06:48:55.346Z,92.35
2018-12-14T06:51:38.538Z,91.66
2018-12-14T06:54:15.761Z,91.67
2018-12-14T06:56:49.368Z,90.96
2018-12-14T06:59:27.900Z,91.67
2018-12-14T07:01:59.283Z,91.30
2018-12-14T07:04:32.540Z,90.87
2018-12-14T07:07:05.713Z,91.09
2018-12-14T07:09:38.514Z,91.41
2018-12-14T07:12:12.355Z,91.45
2018-12-14T07:14:49.955Z,90.90
2018-12-14T07:17:24.695Z,90.99
2018-12-14T07:19:58.663Z,91.29
2018-12-14T07:22:35.096Z,91.04
2018-12-14T07:25:09.155Z,91.04
2018-12-14T07:27:47.236Z,91.18
2018-12-14T07:30:21.634Z,91.08
2018-12-14T07:32:59.154Z,90.93
2018-12-14T07:35:32.779Z,89.89
2018-12-14T07:38:08.855Z,89.42
2018-12-14T07:40:42.072Z,89.31
2018-12-14T07:43:14.814Z,88.72
2018-12-14T07:45:50.883Z,88.60
2018-12-14T07:48:28.170Z,88.27
2018-12-14T07:51:00.942Z,88.04
2018-12-14T07:53:40.286Z,88.66
2018-12-14T07:56:18.748Z,89.15
2018-12-14T07:58:51.568Z,88.96
2018-12-14T08:01:24.412Z,88.72
2018-12-14T08:04:02.757Z,88.02
2018-12-14T08:06:36.212Z,88.31
2018-12-14T08:09:13.472Z,88.48
2018-12-14T08:11:47.930Z,88.82
2018-12-14T08:14:21.729Z,89.31
2018-12-14T08:16:59.120Z,88.86
2018-12-14T08:19:32.210Z,88.17
2018-12-14T08:22:06.045Z,87.79
2018-12-14T08:24:39.742Z,87.93
2018-12-14T08:27:12.683Z,88.61
2018-12-14T08:29:49.969Z,88.83
2018-12-14T08:32:22.272Z,88.36
2018-12-14T08:34:55.453Z,88.52
2018-12-14T08:37:32.566Z,88.08
2018-12-14T08:40:06.815Z,88.55
2018-12-14T08:42:39.668Z,87.96
2018-12-14T08:45:13.625Z,87.88
2018-12-14T08:47:46.968Z,87.72
2018-12-14T08:50:20.120Z,87.56
2018-12-14T08:52:53.219Z,88.12
2018-12-14T08:55:24.288Z,86.64
2018-12-14T08:57:57.226Z,86.46
2018-12-14T09:00:30.596Z,86.15
2018-12-14T09:03:07.799Z,86.62
2018-12-14T09:05:40.464Z,84.75
2018-12-14T09:08:12.770Z,85.00
2018-12-14T09:10:50.772Z,84.46
2018-12-14T09:13:29.647Z,85.74
2018-12-14T09:16:05.989Z,85.70
2018-12-14T09:18:43.927Z,85.29
2018-12-14T09:26:19.758Z,85.04
2018-12-14T09:28:53.907Z,85.60
2018-12-14T09:31:28.733Z,85.15
2018-12-14T09:34:01.204Z,85.21
2018-12-14T09:36:34.244Z,85.48
2018-12-14T09:39:09.144Z,84.47
2018-12-14T09:41:46.150Z,84.38
2018-12-14T09:44:24.386Z,84.37
2018-12-14T09:46:57.577Z,83.59
2018-12-14T09:49:30.906Z,84.85
2018-12-14T09:52:07.224Z,85.53
2018-12-14T09:54:41.340Z,85.15
2018-12-14T09:57:14.524Z,85.26
2018-12-14T09:59:50.754Z,86.22
2018-12-14T10:02:21.703Z,84.63
2018-12-14T10:04:59.282Z,85.08
2018-12-14T10:07:31.870Z,84.52
2018-12-14T10:10:06.796Z,86.20
2018-12-14T10:12:39.804Z,86.16
2018-12-14T10:15:13.095Z,85.99
2018-12-14T10:17:49.365Z,85.43
2018-12-14T10:20:23.467Z,84.92
2018-12-14T10:23:02.373Z,84.96
2018-12-14T10:25:39.550Z,85.63
2018-12-14T10:35:43.426Z,85.17
2018-12-14T10:38:16.637Z,85.02
2018-12-14T10:40:49.279Z,84.99
2018-12-14T10:43:21.874Z,85.31
2018-12-14T10:46:01.870Z,85.18
2018-12-14T10:48:35.019Z,84.28
2018-12-14T10:51:08.175Z,85.15
2018-12-14T10:53:41.393Z,85.19
2018-12-14T10:56:15.890Z,85.59
2018-12-14T10:58:52.256Z,85.74
2018-12-14T11:01:30.534Z,86.62
2018-12-14T11:04:03.323Z,86.67
2018-12-14T11:06:39.890Z,85.76
2018-12-14T11:09:17.784Z,86.28
2018-12-14T11:11:51.227Z,86.49
2018-12-14T11:14:24.126Z,86.43
2018-12-14T11:16:57.683Z,87.10
2018-12-14T11:19:34.834Z,88.56
2018-12-14T11:22:26.169Z,88.00
2018-12-14T11:25:03.302Z,88.56
2018-12-14T11:27:39.923Z,87.84
2018-12-14T11:30:17.378Z,88.39
2018-12-14T11:32:53.585Z,87.70
2018-12-14T11:35:29.839Z,88.44
2018-12-14T11:50:36.805Z,89.91
2018-12-14T11:53:18.050Z,89.22
2018-12-14T11:55:50.923Z,88.73
2018-12-14T11:58:29.209Z,88.43
2018-12-14T12:01:07.439Z,88.68
2018-12-14T12:03:42.965Z,88.73
2018-12-14T12:06:16.535Z,89.35
2018-12-14T12:08:53.548Z,88.70
2018-12-14T12:11:26.802Z,88.46
2018-12-14T12:14:00.127Z,88.79
2018-12-14T12:16:34.192Z,88.62
2018-12-14T12:19:12.328Z,89.28
2018-12-14T12:21:49.838Z,89.47
2018-12-14T12:24:28.148Z,89.96
2018-12-14T12:27:04.650Z,89.51
2018-12-14T12:29:38.094Z,89.82
2018-12-14T12:32:11.199Z,89.80
2018-12-14T12:34:47.814Z,90.07
2018-12-14T12:37:25.156Z,88.81
2018-12-14T12:39:59.438Z,87.90
2018-12-14T12:42:32.862Z,88.81
2018-12-14T12:45:07.729Z,89.44
2018-12-14T12:47:43.990Z,88.54
2018-12-14T12:50:17.493Z,88.99
2018-12-14T12:52:48.468Z,89.59
2018-12-14T12:55:25.431Z,88.98
2018-12-14T12:58:03.665Z,88.28
2018-12-14T13:00:34.788Z,87.63
2018-12-14T13:03:07.968Z,88.26
2018-12-14T13:05:41.770Z,87.84
2018-12-14T13:08:15.175Z,88.15
2018-12-14T13:10:52.003Z,88.33
2018-12-14T13:13:23.363Z,87.92
2018-12-14T13:15:56.997Z,87.59
2018-12-14T13:18:33.876Z,88.27
2018-12-14T13:21:07.046Z,88.22
2018-12-14T13:23:39.873Z,89.07
2018-12-14T13:26:12.888Z,88.95
2018-12-14T13:28:49.181Z,89.60
2018-12-14T13:31:21.577Z,90.22
2018-12-14T13:33:54.980Z,90.14
2018-12-14T13:36:28.097Z,90.32
2018-12-14T13:39:06.177Z,89.22
2018-12-14T13:41:36.794Z,88.92
2018-12-14T13:44:09.814Z,89.21
2018-12-14T13:46:42.955Z,88.46
2018-12-14T13:49:15.897Z,89.87
2018-12-14T13:51:52.625Z,89.61
2018-12-14T13:54:26.689Z,89.25
2018-12-14T13:57:03.868Z,89.23
2018-12-14T13:59:36.005Z,89.38
2018-12-14T14:02:08.236Z,88.91
2018-12-14T14:04:40.920Z,88.49
2018-12-14T14:07:13.095Z,88.35
2018-12-14T14:09:50.208Z,89.34
2018-12-14T14:12:30.848Z,89.48
2018-12-14T14:15:07.029Z,89.21
2018-12-14T14:17:44.090Z,89.44
2018-12-14T14:20:17.068Z,88.66
2018-12-14T14:22:49.453Z,87.91
2018-12-14T14:25:26.640Z,87.52
2018-12-14T14:27:59.917Z,88.16
2018-12-14T14:30:32.949Z,88.71
2018-12-14T14:33:10.050Z,88.70
2018-12-14T14:35:40.944Z,89.69
2018-12-14T14:38:17.059Z,89.64
2018-12-14T14:40:50.060Z,88.40
2018-12-14T14:43:22.551Z,89.07
2018-12-14T14:45:59.482Z,89.21
2018-12-14T14:48:35.862Z,88.45
2018-12-14T14:51:09.306Z,89.64
2018-12-14T14:53:41.725Z,88.45
2018-12-14T14:56:18.912Z,88.93
2018-12-14T14:58:55.133Z,88.43
2018-12-14T15:01:27.251Z,88.92
2018-12-14T15:04:00.261Z,89.25
2018-12-14T15:06:33.935Z,89.31
2018-12-14T15:09:10.723Z,89.63
2018-12-14T15:11:43.370Z,90.03
2018-12-14T15:14:15.571Z,90.54
2018-12-14T15:16:47.800Z,90.87
2018-12-14T15:19:25.130Z,91.49
2018-12-14T15:22:04.371Z,91.52
2018-12-14T15:24:36.478Z,90.92
2018-12-14T15:27:08.639Z,90.12
2018-12-14T15:29:45.077Z,90.08
2018-12-14T15:32:15.482Z,90.99
2018-12-14T15:34:51.513Z,90.69
2018-12-14T15:37:23.713Z,90.61
2018-12-14T15:39:59.851Z,89.97
2018-12-14T15:42:36.239Z,90.66
2018-12-14T15:45:13.256Z,90.72
2018-12-14T15:47:46.370Z,91.35
2018-12-14T15:50:22.434Z,90.45
2018-12-14T15:52:58.642Z,91.99
2018-12-14T15:55:30.924Z,92.17
2018-12-14T15:58:03.077Z,92.06
2018-12-14T16:13:18.661Z,92.03
2018-12-14T16:15:50.854Z,92.34
2018-12-14T16:18:22.980Z,92.91
2018-12-14T16:20:56.422Z,93.89
2018-12-14T16:23:28.406Z,94.05
2018-12-14T16:26:04.569Z,94.37
2018-12-14T16:28:37.084Z,93.82
2018-12-14T16:31:10.670Z,93.34
2018-12-14T16:33:43.607Z,92.90
2018-12-14T16:36:19.901Z,92.87
2018-12-14T16:38:56.160Z,92.13
2018-12-14T16:41:32.520Z,92.18
2018-12-14T16:44:05.518Z,91.94
2018-12-14T16:46:37.839Z,91.53
2018-12-14T16:49:10.559Z,91.53
2018-12-14T16:51:43.394Z,91.15
2018-12-14T16:54:16.261Z,91.28
2018-12-14T16:56:52.486Z,91.29
2018-12-14T16:59:24.590Z,91.43
2018-12-14T17:01:56.915Z,92.03
2018-12-14T17:04:29.348Z,92.13
2018-12-14T17:07:02.165Z,92.58
2018-12-14T17:09:38.343Z,92.60
2018-12-14T17:12:14.659Z,92.71
2018-12-14T17:17:32.872Z,92.42
2018-12-14T17:20:10.480Z,93.90
2018-12-14T17:22:50.779Z,93.08
2018-12-14T17:25:25.702Z,92.57
2018-12-14T17:28:06.526Z,92.61
2018-12-14T17:30:44.173Z,92.97
2018-12-14T17:33:19.018Z,92.98
2018-12-14T17:35:55.122Z,91.97
2018-12-14T17:38:35.386Z,91.78
2018-12-14T17:41:08.617Z,92.00
2018-12-14T17:43:51.353Z,91.50
2018-12-14T17:46:25.629Z,90.77
2018-12-14T17:48:59.107Z,90.21
2018-12-14T17:51:36.849Z,90.37
2018-12-14T17:54:19.327Z,89.90
2018-12-14T17:56:53.955Z,89.60
2018-12-14T17:59:27.263Z,89.44
2018-12-14T18:02:04.135Z,89.13
2018-12-14T18:04:37.500Z,89.32
2018-12-14T18:07:09.583Z,88.23
2018-12-14T18:09:44.225Z,87.91
2018-12-14T18:12:22.097Z,88.08
2018-12-14T18:14:59.452Z,88.37
2018-12-14T18:17:32.451Z,88.68
2018-12-14T18:20:06.418Z,88.34
2018-12-14T18:22:39.310Z,88.48
2018-12-14T18:25:16.758Z,88.11
2018-12-14T18:27:49.748Z,89.63
2018-12-14T18:30:23.786Z,91.30
2018-12-14T18:33:00.216Z,89.93
2018-12-14T18:35:38.632Z,87.33
2018-12-14T18:38:11.523Z,89.20
2018-12-14T18:40:47.880Z,88.05
2018-12-14T18:43:24.121Z,91.54
2018-12-14T18:46:02.943Z,90.10
2018-12-14T18:48:40.033Z,87.22
2018-12-14T18:51:16.646Z,87.01
2018-12-14T18:53:56.374Z,87.93
2018-12-14T18:56:29.599Z,87.52
2018-12-14T18:59:02.769Z,88.08
2018-12-14T19:03:23.988Z,86.99
2018-12-14T19:05:57.177Z,87.36
2018-12-14T19:08:30.143Z,88.11
2018-12-14T19:11:02.632Z,88.18
2018-12-14T19:13:35.632Z,88.48
2018-12-14T19:16:11.901Z,88.84
2018-12-14T19:18:48.131Z,88.51
2018-12-14T19:22:58.989Z,88.82
2018-12-14T19:25:31.904Z,89.38
2018-12-14T19:28:06.653Z,89.11
2018-12-14T19:30:39.438Z,89.02
2018-12-14T19:34:40.437Z,89.31
2018-12-14T19:46:52.837Z,42.84
2018-12-14T19:49:25.086Z,49.07
2018-12-14T19:52:01.724Z,55.48
2018-12-14T19:54:34.591Z,61.71
2018-12-14T19:57:06.777Z,66.63
2018-12-14T19:59:38.950Z,72.57
2018-12-14T20:02:12.074Z,74.49
2018-12-14T20:04:48.778Z,76.78
2018-12-14T20:07:21.399Z,78.85
2018-12-14T20:09:53.697Z,83.31
2018-12-14T20:12:26.420Z,83.90
2018-12-14T20:15:02.557Z,85.61
2018-12-14T20:17:39.759Z,87.52
2018-12-14T20:20:10.188Z,87.27
2018-12-14T20:22:46.564Z,88.16
2018-12-14T20:25:19.440Z,89.52
2018-12-14T20:27:56.602Z,90.86
2018-12-14T20:30:29.655Z,91.33
2018-12-14T20:33:01.896Z,91.36
2018-12-14T20:35:39.120Z,91.52
2018-12-14T20:38:12.194Z,92.10
2018-12-14T20:40:48.446Z,92.52
2018-12-14T20:43:21.031Z,92.78
2018-12-14T20:45:57.948Z,92.59
2018-12-14T20:48:28.189Z,92.93
2018-12-14T20:51:04.370Z,93.48
2018-12-14T20:53:37.894Z,93.26
2018-12-14T20:56:15.769Z,93.92
2018-12-14T20:58:48.436Z,93.73
2018-12-14T21:01:22.377Z,94.06
2018-12-14T21:03:55.565Z,94.25
2018-12-14T21:06:29.219Z,94.46
2018-12-14T21:09:02.413Z,94.23
2018-12-14T21:11:38.766Z,94.45
2018-12-14T21:14:19.850Z,94.63
2018-12-14T21:16:55.462Z,94.66
2018-12-14T21:19:32.719Z,94.92
2018-12-14T21:22:11.711Z,95.28
2018-12-14T21:24:45.795Z,95.40
2018-12-14T21:27:19.112Z,94.97
2018-12-14T21:29:52.126Z,94.79
2018-12-14T21:32:24.919Z,95.27
2018-12-14T21:34:59.324Z,94.87
2018-12-14T21:37:30.871Z,95.07
2018-12-14T21:40:04.373Z,94.49
2018-12-14T21:42:37.101Z,94.52
2018-12-14T21:45:24.727Z,94.80
2018-12-14T21:47:59.373Z,95.01
2018-12-14T21:50:39.912Z,95.16
2018-12-14T21:53:17.620Z,95.23
2018-12-14T21:55:55.744Z,95.40
2018-12-14T21:58:36.642Z,95.39
2018-12-14T22:01:12.562Z,95.24
2018-12-14T22:03:57.163Z,95.46
2018-12-14T22:06:36.262Z,95.21
2018-12-14T22:09:18.755Z,95.34
2018-12-14T22:11:57.125Z,95.29
2018-12-14T22:14:37.096Z,95.64
2018-12-14T22:17:09.876Z,95.39
2018-12-14T22:19:53.601Z,95.63
2018-12-14T22:22:37.865Z,95.34
2018-12-14T22:25:12.235Z,95.47
2018-12-14T22:27:48.607Z,95.31
2018-12-14T22:30:25.388Z,95.63
2018-12-14T22:32:57.740Z,95.22
2018-12-14T22:35:34.756Z,95.25
2018-12-14T22:38:07.630Z,94.98
2018-12-14T22:40:40.691Z,95.03
2018-12-14T22:43:13.057Z,95.53
2018-12-14T22:45:45.331Z,95.12
2018-12-14T22:48:21.980Z,95.05
2018-12-14T22:50:54.957Z,95.18
2018-12-14T22:53:27.260Z,94.78
2018-12-14T22:56:03.433Z,94.57
2018-12-14T22:58:40.098Z,95.22
2018-12-14T23:01:12.747Z,95.62
2018-12-14T23:03:49.626Z,95.65
2018-12-14T23:06:20.698Z,95.32
2018-12-14T23:08:57.706Z,95.73
2018-12-14T23:11:29.853Z,95.38
2018-12-14T23:14:03.058Z,95.65
2018-12-14T23:16:33.324Z,95.78
2018-12-14T23:19:06.447Z,95.85
2018-12-14T23:21:39.623Z,95.53
2018-12-14T23:24:12.700Z,95.20
2018-12-14T23:26:44.831Z,95.43
2018-12-14T23:29:17.154Z,95.45
2018-12-14T23:31:49.581Z,95.55
2018-12-14T23:34:21.697Z,95.13
2018-12-14T23:36:53.939Z,94.87
2018-12-14T23:39:24.668Z,95.44
2018-12-14T23:41:57.324Z,95.12
2018-12-14T23:44:29.670Z,94.96
2018-12-14T23:47:06.648Z,95.05
2018-12-14T23:49:43.071Z,94.63
2018-12-14T23:52:19.154Z,94.95
2018-12-14T23:54:51.336Z,94.93
2018-12-14T23:57:27.621Z,94.98
